Ana Sayfa
METAR-TAF:

METAR-TAF

Havaalanları :

Ashland, Kentucky, Amerika Birleşik Devletleri

Enlem: 38-33-16N, Boylam: 082-44-17W, yükseklik: 166 m

Güncel hava durumu gözlemi

Rapor saat 01:56 UTC de 31 dakika önce yapıldı.
Sakin rüzgar
Sıcaklık 23°C
Nem 94%
Basınç 1015 hPa
Görüş mesafesi: 16.1 km
6000 ft yükseklikte parçalı bulutlu
8000 ft yükseklikte parçalı çok bulutlu

METAR: KDWU 180156Z AUTO 00000KT 10SM SCT060 BKN080 23/22 A2997 RMK AO2 SLP143 T02330222

Saat: 22:27 (02:27 UTC)


TAF: eksik

4.000'den fazla havaalanı için hava durumu gözlemleri ve tahminleri (METAR ve TAF raporları).

Kullanılabilir istasyonlar harita üzerinde sarı ve kırmızı noktalarla gösterilir.

İstasyonun adını görmek için fareyi noktanın üzerinde gezdirin.

Sonrasında hava gözlem ve tahminlerini görmek için tıklayın.

Haritayı değiştirmek için: yaklaştırmak için siyah artı işaretli yeşil düğmeye ve uzaklaştırmak için de eksi işaretli düğmeye hızla tıklayın; bitişik haritalar için yeşil okları kullanın.


METAR-TAF: